<?xml version="1.0" encoding="UTF-8" standalone="no" ?>
<gpx xmlns="http://www.topografix.com/GPX/1/1" xmlns:xsi="http://www.w3.org/2001/XMLSchema-instance" xsi:schemaLocation="http://www.topografix.com/GPX/1/1 http://www.topografix.com/GPX/1/1/gpx.xsd" version="1.1" creator="VisuGPX - https://www.visugpx.com">
  <metadata>
    <name>Plan de la Tour reel</name>
    <desc><![CDATA[Plan de la Tour reel]]></desc>
  </metadata>
  <trk>
    <name><![CDATA[61ACTIVE LOG- 27 AOU 2012-PLAN-TOUR]]></name>
    <trkseg>
      <trkpt lat="43.28178" lon="6.58739">
        <ele>2</ele>
        <time>2012-08-27T06:45:22Z</time>
      </trkpt>
      <trkpt lat="43.28178" lon="6.58688">
        <ele>3</ele>
        <time>2012-08-27T07:08:08Z</time>
      </trkpt>
      <trkpt lat="43.28192" lon="6.58626">
        <ele>5</ele>
        <time>2012-08-27T07:08:25Z</time>
      </trkpt>
      <trkpt lat="43.28199" lon="6.58572">
        <ele>6</ele>
        <time>2012-08-27T07:08:42Z</time>
      </trkpt>
      <trkpt lat="43.28182" lon="6.5851">
        <ele>6</ele>
        <time>2012-08-27T07:08:55Z</time>
      </trkpt>
      <trkpt lat="43.28163" lon="6.58444">
        <ele>6</ele>
        <time>2012-08-27T07:09:09Z</time>
      </trkpt>
      <trkpt lat="43.28145" lon="6.58369">
        <ele>5</ele>
        <time>2012-08-27T07:09:21Z</time>
      </trkpt>
      <trkpt lat="43.28128" lon="6.58301">
        <ele>6</ele>
        <time>2012-08-27T07:09:34Z</time>
      </trkpt>
      <trkpt lat="43.28109" lon="6.58235">
        <ele>5</ele>
        <time>2012-08-27T07:09:46Z</time>
      </trkpt>
      <trkpt lat="43.28094" lon="6.58173">
        <ele>5</ele>
        <time>2012-08-27T07:09:58Z</time>
      </trkpt>
      <trkpt lat="43.28078" lon="6.58112">
        <ele>5</ele>
        <time>2012-08-27T07:10:11Z</time>
      </trkpt>
      <trkpt lat="43.28063" lon="6.58048">
        <ele>6</ele>
        <time>2012-08-27T07:10:22Z</time>
      </trkpt>
      <trkpt lat="43.28049" lon="6.57989">
        <ele>7</ele>
        <time>2012-08-27T07:10:32Z</time>
      </trkpt>
      <trkpt lat="43.28045" lon="6.57931">
        <ele>7</ele>
        <time>2012-08-27T07:11:06Z</time>
      </trkpt>
      <trkpt lat="43.28053" lon="6.57874">
        <ele>7</ele>
        <time>2012-08-27T07:11:22Z</time>
      </trkpt>
      <trkpt lat="43.28089" lon="6.57837">
        <ele>7</ele>
        <time>2012-08-27T07:11:37Z</time>
      </trkpt>
      <trkpt lat="43.28125" lon="6.57796">
        <ele>8</ele>
        <time>2012-08-27T07:11:53Z</time>
      </trkpt>
      <trkpt lat="43.2816" lon="6.57755">
        <ele>11</ele>
        <time>2012-08-27T07:12:11Z</time>
      </trkpt>
      <trkpt lat="43.28205" lon="6.5774">
        <ele>11</ele>
        <time>2012-08-27T07:12:26Z</time>
      </trkpt>
      <trkpt lat="43.28246" lon="6.57718">
        <ele>11</ele>
        <time>2012-08-27T07:12:41Z</time>
      </trkpt>
      <trkpt lat="43.28275" lon="6.57667">
        <ele>12</ele>
        <time>2012-08-27T07:12:54Z</time>
      </trkpt>
      <trkpt lat="43.28317" lon="6.57633">
        <ele>12</ele>
        <time>2012-08-27T07:13:06Z</time>
      </trkpt>
      <trkpt lat="43.2837" lon="6.57614">
        <ele>13</ele>
        <time>2012-08-27T07:13:16Z</time>
      </trkpt>
      <trkpt lat="43.28417" lon="6.57616">
        <ele>12</ele>
        <time>2012-08-27T07:13:26Z</time>
      </trkpt>
      <trkpt lat="43.28464" lon="6.57621">
        <ele>12</ele>
        <time>2012-08-27T07:13:37Z</time>
      </trkpt>
      <trkpt lat="43.28512" lon="6.57619">
        <ele>12</ele>
        <time>2012-08-27T07:13:48Z</time>
      </trkpt>
      <trkpt lat="43.28557" lon="6.57601">
        <ele>12</ele>
        <time>2012-08-27T07:14:00Z</time>
      </trkpt>
      <trkpt lat="43.28598" lon="6.57574">
        <ele>14</ele>
        <time>2012-08-27T07:14:11Z</time>
      </trkpt>
      <trkpt lat="43.28635" lon="6.57534">
        <ele>15</ele>
        <time>2012-08-27T07:14:22Z</time>
      </trkpt>
      <trkpt lat="43.28673" lon="6.57497">
        <ele>16</ele>
        <time>2012-08-27T07:14:37Z</time>
      </trkpt>
      <trkpt lat="43.28709" lon="6.5746">
        <ele>16</ele>
        <time>2012-08-27T07:14:51Z</time>
      </trkpt>
      <trkpt lat="43.28751" lon="6.57473">
        <ele>20</ele>
        <time>2012-08-27T07:15:09Z</time>
      </trkpt>
      <trkpt lat="43.28798" lon="6.57461">
        <ele>22</ele>
        <time>2012-08-27T07:15:27Z</time>
      </trkpt>
      <trkpt lat="43.28843" lon="6.57452">
        <ele>23</ele>
        <time>2012-08-27T07:15:46Z</time>
      </trkpt>
      <trkpt lat="43.28887" lon="6.57448">
        <ele>25</ele>
        <time>2012-08-27T07:16:06Z</time>
      </trkpt>
      <trkpt lat="43.28927" lon="6.57419">
        <ele>28</ele>
        <time>2012-08-27T07:16:27Z</time>
      </trkpt>
      <trkpt lat="43.28972" lon="6.57407">
        <ele>29</ele>
        <time>2012-08-27T07:16:51Z</time>
      </trkpt>
      <trkpt lat="43.29018" lon="6.57396">
        <ele>30</ele>
        <time>2012-08-27T07:17:10Z</time>
      </trkpt>
      <trkpt lat="43.2906" lon="6.57379">
        <ele>32</ele>
        <time>2012-08-27T07:17:31Z</time>
      </trkpt>
      <trkpt lat="43.29106" lon="6.5739">
        <ele>33</ele>
        <time>2012-08-27T07:17:53Z</time>
      </trkpt>
      <trkpt lat="43.29148" lon="6.57414">
        <ele>36</ele>
        <time>2012-08-27T07:18:14Z</time>
      </trkpt>
      <trkpt lat="43.29187" lon="6.57443">
        <ele>38</ele>
        <time>2012-08-27T07:18:35Z</time>
      </trkpt>
      <trkpt lat="43.29235" lon="6.5745">
        <ele>38</ele>
        <time>2012-08-27T07:18:49Z</time>
      </trkpt>
      <trkpt lat="43.29277" lon="6.57465">
        <ele>40</ele>
        <time>2012-08-27T07:19:09Z</time>
      </trkpt>
      <trkpt lat="43.2932" lon="6.5749">
        <ele>41</ele>
        <time>2012-08-27T07:19:34Z</time>
      </trkpt>
      <trkpt lat="43.29367" lon="6.57498">
        <ele>42</ele>
        <time>2012-08-27T07:19:55Z</time>
      </trkpt>
      <trkpt lat="43.29413" lon="6.57505">
        <ele>46</ele>
        <time>2012-08-27T07:20:16Z</time>
      </trkpt>
      <trkpt lat="43.29459" lon="6.57509">
        <ele>51</ele>
        <time>2012-08-27T07:20:39Z</time>
      </trkpt>
      <trkpt lat="43.29499" lon="6.57478">
        <ele>53</ele>
        <time>2012-08-27T07:21:02Z</time>
      </trkpt>
      <trkpt lat="43.29539" lon="6.57448">
        <ele>51</ele>
        <time>2012-08-27T07:21:25Z</time>
      </trkpt>
      <trkpt lat="43.29588" lon="6.57446">
        <ele>54</ele>
        <time>2012-08-27T07:21:45Z</time>
      </trkpt>
      <trkpt lat="43.29634" lon="6.57438">
        <ele>60</ele>
        <time>2012-08-27T07:22:14Z</time>
      </trkpt>
      <trkpt lat="43.29677" lon="6.57431">
        <ele>67</ele>
        <time>2012-08-27T07:22:47Z</time>
      </trkpt>
      <trkpt lat="43.29724" lon="6.57432">
        <ele>72</ele>
        <time>2012-08-27T07:23:17Z</time>
      </trkpt>
      <trkpt lat="43.29767" lon="6.57417">
        <ele>73</ele>
        <time>2012-08-27T07:26:15Z</time>
      </trkpt>
      <trkpt lat="43.29812" lon="6.57391">
        <ele>73</ele>
        <time>2012-08-27T07:26:31Z</time>
      </trkpt>
      <trkpt lat="43.29851" lon="6.57358">
        <ele>73</ele>
        <time>2012-08-27T07:26:49Z</time>
      </trkpt>
      <trkpt lat="43.29886" lon="6.57318">
        <ele>72</ele>
        <time>2012-08-27T07:27:03Z</time>
      </trkpt>
      <trkpt lat="43.29925" lon="6.57277">
        <ele>75</ele>
        <time>2012-08-27T07:27:19Z</time>
      </trkpt>
      <trkpt lat="43.29963" lon="6.57238">
        <ele>76</ele>
        <time>2012-08-27T07:27:33Z</time>
      </trkpt>
      <trkpt lat="43.30004" lon="6.57202">
        <ele>76</ele>
        <time>2012-08-27T07:27:50Z</time>
      </trkpt>
      <trkpt lat="43.30046" lon="6.5717">
        <ele>79</ele>
        <time>2012-08-27T07:28:07Z</time>
      </trkpt>
      <trkpt lat="43.30093" lon="6.57162">
        <ele>80</ele>
        <time>2012-08-27T07:28:34Z</time>
      </trkpt>
      <trkpt lat="43.30138" lon="6.57171">
        <ele>85</ele>
        <time>2012-08-27T07:29:06Z</time>
      </trkpt>
      <trkpt lat="43.30181" lon="6.57187">
        <ele>94</ele>
        <time>2012-08-27T07:29:46Z</time>
      </trkpt>
      <trkpt lat="43.3022" lon="6.57209">
        <ele>105</ele>
        <time>2012-08-27T07:30:24Z</time>
      </trkpt>
      <trkpt lat="43.30265" lon="6.57204">
        <ele>109</ele>
        <time>2012-08-27T07:31:02Z</time>
      </trkpt>
      <trkpt lat="43.30309" lon="6.57216">
        <ele>112</ele>
        <time>2012-08-27T07:31:42Z</time>
      </trkpt>
      <trkpt lat="43.30344" lon="6.57254">
        <ele>123</ele>
        <time>2012-08-27T07:32:20Z</time>
      </trkpt>
      <trkpt lat="43.30385" lon="6.57269">
        <ele>130</ele>
        <time>2012-08-27T07:32:57Z</time>
      </trkpt>
      <trkpt lat="43.30425" lon="6.57273">
        <ele>132</ele>
        <time>2012-08-27T07:38:08Z</time>
      </trkpt>
      <trkpt lat="43.30462" lon="6.57311">
        <ele>139</ele>
        <time>2012-08-27T07:38:43Z</time>
      </trkpt>
      <trkpt lat="43.30485" lon="6.57366">
        <ele>149</ele>
        <time>2012-08-27T07:39:18Z</time>
      </trkpt>
      <trkpt lat="43.30512" lon="6.57414">
        <ele>154</ele>
        <time>2012-08-27T07:39:52Z</time>
      </trkpt>
      <trkpt lat="43.30553" lon="6.5744">
        <ele>152</ele>
        <time>2012-08-27T07:40:32Z</time>
      </trkpt>
      <trkpt lat="43.30563" lon="6.57499">
        <ele>161</ele>
        <time>2012-08-27T07:41:05Z</time>
      </trkpt>
      <trkpt lat="43.30587" lon="6.57547">
        <ele>166</ele>
        <time>2012-08-27T07:41:33Z</time>
      </trkpt>
      <trkpt lat="43.30634" lon="6.57557">
        <ele>167</ele>
        <time>2012-08-27T07:42:01Z</time>
      </trkpt>
      <trkpt lat="43.30679" lon="6.57562">
        <ele>171</ele>
        <time>2012-08-27T07:42:30Z</time>
      </trkpt>
      <trkpt lat="43.30724" lon="6.57558">
        <ele>177</ele>
        <time>2012-08-27T07:43:03Z</time>
      </trkpt>
      <trkpt lat="43.30753" lon="6.5758">
        <ele>183</ele>
        <time>2012-08-27T07:43:41Z</time>
      </trkpt>
      <trkpt lat="43.30741" lon="6.57641">
        <ele>186</ele>
        <time>2012-08-27T07:44:22Z</time>
      </trkpt>
      <trkpt lat="43.3074" lon="6.57703">
        <ele>190</ele>
        <time>2012-08-27T07:46:28Z</time>
      </trkpt>
      <trkpt lat="43.30751" lon="6.57766">
        <ele>196</ele>
        <time>2012-08-27T07:47:02Z</time>
      </trkpt>
      <trkpt lat="43.3074" lon="6.57827">
        <ele>197</ele>
        <time>2012-08-27T07:47:40Z</time>
      </trkpt>
      <trkpt lat="43.30767" lon="6.57865">
        <ele>203</ele>
        <time>2012-08-27T07:49:51Z</time>
      </trkpt>
      <trkpt lat="43.30813" lon="6.57869">
        <ele>209</ele>
        <time>2012-08-27T07:50:23Z</time>
      </trkpt>
      <trkpt lat="43.30857" lon="6.57858">
        <ele>216</ele>
        <time>2012-08-27T07:51:02Z</time>
      </trkpt>
      <trkpt lat="43.30901" lon="6.57862">
        <ele>221</ele>
        <time>2012-08-27T07:51:33Z</time>
      </trkpt>
      <trkpt lat="43.30943" lon="6.5789">
        <ele>223</ele>
        <time>2012-08-27T07:52:04Z</time>
      </trkpt>
      <trkpt lat="43.30987" lon="6.57913">
        <ele>222</ele>
        <time>2012-08-27T07:54:07Z</time>
      </trkpt>
      <trkpt lat="43.31035" lon="6.57934">
        <ele>219</ele>
        <time>2012-08-27T07:54:20Z</time>
      </trkpt>
      <trkpt lat="43.31051" lon="6.579">
        <ele>217</ele>
        <time>2012-08-27T07:54:45Z</time>
      </trkpt>
      <trkpt lat="43.31036" lon="6.57839">
        <ele>218</ele>
        <time>2012-08-27T07:55:05Z</time>
      </trkpt>
      <trkpt lat="43.31006" lon="6.57794">
        <ele>223</ele>
        <time>2012-08-27T07:55:33Z</time>
      </trkpt>
      <trkpt lat="43.30977" lon="6.57745">
        <ele>225</ele>
        <time>2012-08-27T07:56:01Z</time>
      </trkpt>
      <trkpt lat="43.30982" lon="6.57682">
        <ele>228</ele>
        <time>2012-08-27T07:56:28Z</time>
      </trkpt>
      <trkpt lat="43.30993" lon="6.57621">
        <ele>234</ele>
        <time>2012-08-27T07:56:52Z</time>
      </trkpt>
      <trkpt lat="43.30982" lon="6.57569">
        <ele>237</ele>
        <time>2012-08-27T07:57:17Z</time>
      </trkpt>
      <trkpt lat="43.30947" lon="6.57529">
        <ele>235</ele>
        <time>2012-08-27T07:58:20Z</time>
      </trkpt>
      <trkpt lat="43.30951" lon="6.57466">
        <ele>246</ele>
        <time>2012-08-27T07:58:45Z</time>
      </trkpt>
      <trkpt lat="43.30931" lon="6.57411">
        <ele>250</ele>
        <time>2012-08-27T07:59:05Z</time>
      </trkpt>
      <trkpt lat="43.30898" lon="6.57372">
        <ele>247</ele>
        <time>2012-08-27T07:59:31Z</time>
      </trkpt>
      <trkpt lat="43.30894" lon="6.57307">
        <ele>253</ele>
        <time>2012-08-27T07:59:57Z</time>
      </trkpt>
      <trkpt lat="43.30899" lon="6.57246">
        <ele>257</ele>
        <time>2012-08-27T08:00:25Z</time>
      </trkpt>
      <trkpt lat="43.30917" lon="6.5719">
        <ele>263</ele>
        <time>2012-08-27T08:00:43Z</time>
      </trkpt>
      <trkpt lat="43.30911" lon="6.5713">
        <ele>263</ele>
        <time>2012-08-27T08:01:03Z</time>
      </trkpt>
      <trkpt lat="43.30912" lon="6.57077">
        <ele>264</ele>
        <time>2012-08-27T08:01:27Z</time>
      </trkpt>
      <trkpt lat="43.30915" lon="6.5704">
        <ele>260</ele>
        <time>2012-08-27T08:02:39Z</time>
      </trkpt>
      <trkpt lat="43.30946" lon="6.5699">
        <ele>256</ele>
        <time>2012-08-27T08:03:32Z</time>
      </trkpt>
      <trkpt lat="43.30969" lon="6.56975">
        <ele>256</ele>
        <time>2012-08-27T08:07:03Z</time>
      </trkpt>
      <trkpt lat="43.31013" lon="6.56943">
        <ele>253</ele>
        <time>2012-08-27T08:07:14Z</time>
      </trkpt>
      <trkpt lat="43.31048" lon="6.56884">
        <ele>246</ele>
        <time>2012-08-27T08:07:24Z</time>
      </trkpt>
      <trkpt lat="43.31066" lon="6.56831">
        <ele>241</ele>
        <time>2012-08-27T08:07:35Z</time>
      </trkpt>
      <trkpt lat="43.31087" lon="6.56775">
        <ele>237</ele>
        <time>2012-08-27T08:07:43Z</time>
      </trkpt>
      <trkpt lat="43.31121" lon="6.56737">
        <ele>238</ele>
        <time>2012-08-27T08:07:52Z</time>
      </trkpt>
      <trkpt lat="43.31132" lon="6.56729">
        <ele>238</ele>
        <time>2012-08-27T08:08:53Z</time>
      </trkpt>
      <trkpt lat="43.31178" lon="6.56706">
        <ele>235</ele>
        <time>2012-08-27T08:09:13Z</time>
      </trkpt>
      <trkpt lat="43.31223" lon="6.56671">
        <ele>228</ele>
        <time>2012-08-27T08:09:20Z</time>
      </trkpt>
      <trkpt lat="43.31265" lon="6.56635">
        <ele>227</ele>
        <time>2012-08-27T08:09:27Z</time>
      </trkpt>
      <trkpt lat="43.31305" lon="6.56599">
        <ele>221</ele>
        <time>2012-08-27T08:09:33Z</time>
      </trkpt>
      <trkpt lat="43.31333" lon="6.56543">
        <ele>221</ele>
        <time>2012-08-27T08:09:40Z</time>
      </trkpt>
      <trkpt lat="43.31358" lon="6.56489">
        <ele>223</ele>
        <time>2012-08-27T08:09:50Z</time>
      </trkpt>
      <trkpt lat="43.314" lon="6.56459">
        <ele>222</ele>
        <time>2012-08-27T08:10:15Z</time>
      </trkpt>
      <trkpt lat="43.31448" lon="6.56471">
        <ele>213</ele>
        <time>2012-08-27T08:10:32Z</time>
      </trkpt>
      <trkpt lat="43.31498" lon="6.5648">
        <ele>209</ele>
        <time>2012-08-27T08:10:40Z</time>
      </trkpt>
      <trkpt lat="43.31543" lon="6.56504">
        <ele>205</ele>
        <time>2012-08-27T08:10:48Z</time>
      </trkpt>
      <trkpt lat="43.31583" lon="6.56474">
        <ele>202</ele>
        <time>2012-08-27T08:10:57Z</time>
      </trkpt>
      <trkpt lat="43.31614" lon="6.56425">
        <ele>200</ele>
        <time>2012-08-27T08:11:06Z</time>
      </trkpt>
      <trkpt lat="43.31655" lon="6.56421">
        <ele>194</ele>
        <time>2012-08-27T08:11:18Z</time>
      </trkpt>
      <trkpt lat="43.31699" lon="6.56426">
        <ele>190</ele>
        <time>2012-08-27T08:11:33Z</time>
      </trkpt>
      <trkpt lat="43.31748" lon="6.56429">
        <ele>183</ele>
        <time>2012-08-27T08:11:50Z</time>
      </trkpt>
      <trkpt lat="43.31791" lon="6.56407">
        <ele>176</ele>
        <time>2012-08-27T08:12:11Z</time>
      </trkpt>
      <trkpt lat="43.3184" lon="6.56393">
        <ele>166</ele>
        <time>2012-08-27T08:12:31Z</time>
      </trkpt>
      <trkpt lat="43.31886" lon="6.5636">
        <ele>155</ele>
        <time>2012-08-27T08:13:41Z</time>
      </trkpt>
      <trkpt lat="43.31916" lon="6.56313">
        <ele>150</ele>
        <time>2012-08-27T08:13:55Z</time>
      </trkpt>
      <trkpt lat="43.31949" lon="6.56293">
        <ele>143</ele>
        <time>2012-08-27T08:14:12Z</time>
      </trkpt>
      <trkpt lat="43.31983" lon="6.56341">
        <ele>134</ele>
        <time>2012-08-27T08:14:20Z</time>
      </trkpt>
      <trkpt lat="43.3201" lon="6.56379">
        <ele>128</ele>
        <time>2012-08-27T08:14:35Z</time>
      </trkpt>
      <trkpt lat="43.32056" lon="6.56364">
        <ele>125</ele>
        <time>2012-08-27T08:14:52Z</time>
      </trkpt>
      <trkpt lat="43.32081" lon="6.56313">
        <ele>125</ele>
        <time>2012-08-27T08:15:04Z</time>
      </trkpt>
      <trkpt lat="43.32119" lon="6.56291">
        <ele>121</ele>
        <time>2012-08-27T08:15:20Z</time>
      </trkpt>
      <trkpt lat="43.32166" lon="6.5627">
        <ele>114</ele>
        <time>2012-08-27T08:15:38Z</time>
      </trkpt>
      <trkpt lat="43.32203" lon="6.56234">
        <ele>106</ele>
        <time>2012-08-27T08:15:58Z</time>
      </trkpt>
      <trkpt lat="43.32242" lon="6.56205">
        <ele>99</ele>
        <time>2012-08-27T08:16:16Z</time>
      </trkpt>
      <trkpt lat="43.32286" lon="6.56187">
        <ele>91</ele>
        <time>2012-08-27T08:16:28Z</time>
      </trkpt>
      <trkpt lat="43.32329" lon="6.56163">
        <ele>86</ele>
        <time>2012-08-27T08:16:37Z</time>
      </trkpt>
      <trkpt lat="43.32376" lon="6.56159">
        <ele>82</ele>
        <time>2012-08-27T08:16:52Z</time>
      </trkpt>
      <trkpt lat="43.32419" lon="6.56156">
        <ele>80</ele>
        <time>2012-08-27T08:17:13Z</time>
      </trkpt>
      <trkpt lat="43.32435" lon="6.5615">
        <ele>79</ele>
        <time>2012-08-27T08:24:54Z</time>
      </trkpt>
      <trkpt lat="43.32474" lon="6.56112">
        <ele>76</ele>
        <time>2012-08-27T08:25:05Z</time>
      </trkpt>
      <trkpt lat="43.32528" lon="6.561">
        <ele>72</ele>
        <time>2012-08-27T08:25:13Z</time>
      </trkpt>
      <trkpt lat="43.32573" lon="6.56117">
        <ele>70</ele>
        <time>2012-08-27T08:25:21Z</time>
      </trkpt>
      <trkpt lat="43.32622" lon="6.56099">
        <ele>66</ele>
        <time>2012-08-27T08:25:31Z</time>
      </trkpt>
      <trkpt lat="43.32673" lon="6.56081">
        <ele>63</ele>
        <time>2012-08-27T08:25:39Z</time>
      </trkpt>
      <trkpt lat="43.32715" lon="6.56055">
        <ele>60</ele>
        <time>2012-08-27T08:25:48Z</time>
      </trkpt>
      <trkpt lat="43.32757" lon="6.56027">
        <ele>60</ele>
        <time>2012-08-27T08:26:03Z</time>
      </trkpt>
      <trkpt lat="43.32787" lon="6.55975">
        <ele>58</ele>
        <time>2012-08-27T08:26:12Z</time>
      </trkpt>
      <trkpt lat="43.32814" lon="6.55922">
        <ele>54</ele>
        <time>2012-08-27T08:26:22Z</time>
      </trkpt>
      <trkpt lat="43.32816" lon="6.55867">
        <ele>51</ele>
        <time>2012-08-27T08:26:37Z</time>
      </trkpt>
      <trkpt lat="43.32831" lon="6.5581">
        <ele>49</ele>
        <time>2012-08-27T08:26:48Z</time>
      </trkpt>
      <trkpt lat="43.32866" lon="6.55764">
        <ele>49</ele>
        <time>2012-08-27T08:26:58Z</time>
      </trkpt>
      <trkpt lat="43.32869" lon="6.55703">
        <ele>51</ele>
        <time>2012-08-27T08:27:17Z</time>
      </trkpt>
      <trkpt lat="43.32875" lon="6.55641">
        <ele>55</ele>
        <time>2012-08-27T08:27:33Z</time>
      </trkpt>
      <trkpt lat="43.32875" lon="6.55581">
        <ele>56</ele>
        <time>2012-08-27T08:27:48Z</time>
      </trkpt>
      <trkpt lat="43.32886" lon="6.5552">
        <ele>57</ele>
        <time>2012-08-27T08:28:05Z</time>
      </trkpt>
      <trkpt lat="43.32935" lon="6.55537">
        <ele>54</ele>
        <time>2012-08-27T08:28:19Z</time>
      </trkpt>
      <trkpt lat="43.32943" lon="6.55536">
        <ele>54</ele>
        <time>2012-08-27T08:29:01Z</time>
      </trkpt>
      <trkpt lat="43.32897" lon="6.55518">
        <ele>56</ele>
        <time>2012-08-27T08:29:13Z</time>
      </trkpt>
      <trkpt lat="43.32882" lon="6.55572">
        <ele>56</ele>
        <time>2012-08-27T08:29:27Z</time>
      </trkpt>
      <trkpt lat="43.32879" lon="6.55643">
        <ele>54</ele>
        <time>2012-08-27T08:29:35Z</time>
      </trkpt>
      <trkpt lat="43.32873" lon="6.55706">
        <ele>51</ele>
        <time>2012-08-27T08:29:45Z</time>
      </trkpt>
      <trkpt lat="43.32866" lon="6.55764">
        <ele>49</ele>
        <time>2012-08-27T08:29:58Z</time>
      </trkpt>
      <trkpt lat="43.32836" lon="6.55805">
        <ele>49</ele>
        <time>2012-08-27T08:30:12Z</time>
      </trkpt>
      <trkpt lat="43.3282" lon="6.55862">
        <ele>51</ele>
        <time>2012-08-27T08:30:26Z</time>
      </trkpt>
      <trkpt lat="43.3282" lon="6.55913">
        <ele>54</ele>
        <time>2012-08-27T08:30:52Z</time>
      </trkpt>
      <trkpt lat="43.32797" lon="6.55971">
        <ele>57</ele>
        <time>2012-08-27T08:31:13Z</time>
      </trkpt>
      <trkpt lat="43.32763" lon="6.56025">
        <ele>60</ele>
        <time>2012-08-27T08:31:30Z</time>
      </trkpt>
      <trkpt lat="43.32719" lon="6.56049">
        <ele>60</ele>
        <time>2012-08-27T08:31:46Z</time>
      </trkpt>
      <trkpt lat="43.32705" lon="6.56069">
        <ele>61</ele>
        <time>2012-08-27T08:32:27Z</time>
      </trkpt>
      <trkpt lat="43.32743" lon="6.56033">
        <ele>60</ele>
        <time>2012-08-27T08:32:38Z</time>
      </trkpt>
      <trkpt lat="43.32782" lon="6.55996">
        <ele>58</ele>
        <time>2012-08-27T08:32:46Z</time>
      </trkpt>
      <trkpt lat="43.32801" lon="6.55942">
        <ele>56</ele>
        <time>2012-08-27T08:32:56Z</time>
      </trkpt>
      <trkpt lat="43.32827" lon="6.55889">
        <ele>52</ele>
        <time>2012-08-27T08:33:15Z</time>
      </trkpt>
      <trkpt lat="43.32818" lon="6.55832">
        <ele>50</ele>
        <time>2012-08-27T08:33:30Z</time>
      </trkpt>
      <trkpt lat="43.32854" lon="6.55784">
        <ele>49</ele>
        <time>2012-08-27T08:33:43Z</time>
      </trkpt>
      <trkpt lat="43.32861" lon="6.55726">
        <ele>50</ele>
        <time>2012-08-27T08:34:02Z</time>
      </trkpt>
      <trkpt lat="43.32875" lon="6.55662">
        <ele>54</ele>
        <time>2012-08-27T08:34:15Z</time>
      </trkpt>
      <trkpt lat="43.32875" lon="6.55602">
        <ele>56</ele>
        <time>2012-08-27T08:34:27Z</time>
      </trkpt>
      <trkpt lat="43.32879" lon="6.55539">
        <ele>57</ele>
        <time>2012-08-27T08:34:39Z</time>
      </trkpt>
      <trkpt lat="43.32917" lon="6.55532">
        <ele>55</ele>
        <time>2012-08-27T08:35:29Z</time>
      </trkpt>
      <trkpt lat="43.32968" lon="6.55537">
        <ele>53</ele>
        <time>2012-08-27T08:35:38Z</time>
      </trkpt>
      <trkpt lat="43.33017" lon="6.55531">
        <ele>50</ele>
        <time>2012-08-27T08:35:48Z</time>
      </trkpt>
      <trkpt lat="43.33059" lon="6.55504">
        <ele>49</ele>
        <time>2012-08-27T08:36:02Z</time>
      </trkpt>
      <trkpt lat="43.33101" lon="6.55478">
        <ele>48</ele>
        <time>2012-08-27T08:36:11Z</time>
      </trkpt>
      <trkpt lat="43.33146" lon="6.55448">
        <ele>46</ele>
        <time>2012-08-27T08:36:18Z</time>
      </trkpt>
      <trkpt lat="43.33193" lon="6.5543">
        <ele>43</ele>
        <time>2012-08-27T08:36:28Z</time>
      </trkpt>
      <trkpt lat="43.33234" lon="6.55403">
        <ele>41</ele>
        <time>2012-08-27T08:36:42Z</time>
      </trkpt>
      <trkpt lat="43.33276" lon="6.55381">
        <ele>41</ele>
        <time>2012-08-27T08:37:06Z</time>
      </trkpt>
      <trkpt lat="43.33319" lon="6.55369">
        <ele>43</ele>
        <time>2012-08-27T08:37:26Z</time>
      </trkpt>
      <trkpt lat="43.33354" lon="6.55379">
        <ele>43</ele>
        <time>2012-08-27T08:37:49Z</time>
      </trkpt>
      <trkpt lat="43.33371" lon="6.55327">
        <ele>47</ele>
        <time>2012-08-27T08:38:09Z</time>
      </trkpt>
      <trkpt lat="43.3339" lon="6.5527">
        <ele>48</ele>
        <time>2012-08-27T08:38:23Z</time>
      </trkpt>
      <trkpt lat="43.33425" lon="6.5525">
        <ele>49</ele>
        <time>2012-08-27T08:38:40Z</time>
      </trkpt>
      <trkpt lat="43.33444" lon="6.55192">
        <ele>52</ele>
        <time>2012-08-27T08:38:54Z</time>
      </trkpt>
      <trkpt lat="43.33472" lon="6.55144">
        <ele>53</ele>
        <time>2012-08-27T08:39:08Z</time>
      </trkpt>
      <trkpt lat="43.33494" lon="6.55092">
        <ele>53</ele>
        <time>2012-08-27T08:39:23Z</time>
      </trkpt>
      <trkpt lat="43.33512" lon="6.55036">
        <ele>54</ele>
        <time>2012-08-27T08:39:45Z</time>
      </trkpt>
      <trkpt lat="43.33501" lon="6.54975">
        <ele>56</ele>
        <time>2012-08-27T08:39:59Z</time>
      </trkpt>
      <trkpt lat="43.33518" lon="6.54951">
        <ele>56</ele>
        <time>2012-08-27T08:40:16Z</time>
      </trkpt>
      <trkpt lat="43.33567" lon="6.54968">
        <ele>56</ele>
        <time>2012-08-27T08:40:29Z</time>
      </trkpt>
      <trkpt lat="43.33618" lon="6.54978">
        <ele>56</ele>
        <time>2012-08-27T08:40:40Z</time>
      </trkpt>
      <trkpt lat="43.33657" lon="6.54943">
        <ele>59</ele>
        <time>2012-08-27T08:40:53Z</time>
      </trkpt>
      <trkpt lat="43.3367" lon="6.54895">
        <ele>61</ele>
        <time>2012-08-27T08:41:36Z</time>
      </trkpt>
      <trkpt lat="43.33704" lon="6.54858">
        <ele>65</ele>
        <time>2012-08-27T08:42:07Z</time>
      </trkpt>
      <trkpt lat="43.33748" lon="6.54885">
        <ele>66</ele>
        <time>2012-08-27T08:43:29Z</time>
      </trkpt>
      <trkpt lat="43.33792" lon="6.5489">
        <ele>66</ele>
        <time>2012-08-27T08:43:41Z</time>
      </trkpt>
      <trkpt lat="43.33813" lon="6.54949">
        <ele>64</ele>
        <time>2012-08-27T08:43:51Z</time>
      </trkpt>
      <trkpt lat="43.33839" lon="6.54921">
        <ele>66</ele>
        <time>2012-08-27T08:44:05Z</time>
      </trkpt>
      <trkpt lat="43.33853" lon="6.54864">
        <ele>67</ele>
        <time>2012-08-27T08:44:21Z</time>
      </trkpt>
      <trkpt lat="43.33869" lon="6.54802">
        <ele>68</ele>
        <time>2012-08-27T08:44:38Z</time>
      </trkpt>
      <trkpt lat="43.33899" lon="6.54752">
        <ele>69</ele>
        <time>2012-08-27T08:44:58Z</time>
      </trkpt>
      <trkpt lat="43.3389" lon="6.54754">
        <ele>69</ele>
        <time>2012-08-27T08:57:45Z</time>
      </trkpt>
      <trkpt lat="43.33906" lon="6.54704">
        <ele>70</ele>
        <time>2012-08-27T08:58:12Z</time>
      </trkpt>
      <trkpt lat="43.33891" lon="6.54639">
        <ele>71</ele>
        <time>2012-08-27T08:58:33Z</time>
      </trkpt>
      <trkpt lat="43.33882" lon="6.54572">
        <ele>73</ele>
        <time>2012-08-27T08:58:51Z</time>
      </trkpt>
      <trkpt lat="43.33885" lon="6.54511">
        <ele>75</ele>
        <time>2012-08-27T08:59:08Z</time>
      </trkpt>
      <trkpt lat="43.33872" lon="6.54446">
        <ele>78</ele>
        <time>2012-08-27T08:59:24Z</time>
      </trkpt>
      <trkpt lat="43.33854" lon="6.54386">
        <ele>82</ele>
        <time>2012-08-27T08:59:44Z</time>
      </trkpt>
      <trkpt lat="43.33839" lon="6.54325">
        <ele>86</ele>
        <time>2012-08-27T09:00:04Z</time>
      </trkpt>
      <trkpt lat="43.33806" lon="6.54281">
        <ele>88</ele>
        <time>2012-08-27T09:00:27Z</time>
      </trkpt>
      <trkpt lat="43.33769" lon="6.5424">
        <ele>91</ele>
        <time>2012-08-27T09:00:51Z</time>
      </trkpt>
      <trkpt lat="43.33744" lon="6.54188">
        <ele>94</ele>
        <time>2012-08-27T09:01:12Z</time>
      </trkpt>
      <trkpt lat="43.3373" lon="6.54127">
        <ele>99</ele>
        <time>2012-08-27T09:01:35Z</time>
      </trkpt>
      <trkpt lat="43.33716" lon="6.54066">
        <ele>103</ele>
        <time>2012-08-27T09:02:03Z</time>
      </trkpt>
      <trkpt lat="43.33703" lon="6.54011">
        <ele>108</ele>
        <time>2012-08-27T09:03:02Z</time>
      </trkpt>
      <trkpt lat="43.33677" lon="6.53957">
        <ele>110</ele>
        <time>2012-08-27T09:03:23Z</time>
      </trkpt>
      <trkpt lat="43.33662" lon="6.53896">
        <ele>111</ele>
        <time>2012-08-27T09:03:42Z</time>
      </trkpt>
      <trkpt lat="43.3364" lon="6.53845">
        <ele>113</ele>
        <time>2012-08-27T09:03:56Z</time>
      </trkpt>
      <trkpt lat="43.33601" lon="6.5379">
        <ele>111</ele>
        <time>2012-08-27T09:04:06Z</time>
      </trkpt>
      <trkpt lat="43.33586" lon="6.53733">
        <ele>110</ele>
        <time>2012-08-27T09:04:13Z</time>
      </trkpt>
      <trkpt lat="43.3359" lon="6.53667">
        <ele>112</ele>
        <time>2012-08-27T09:04:21Z</time>
      </trkpt>
      <trkpt lat="43.33593" lon="6.53607">
        <ele>113</ele>
        <time>2012-08-27T09:04:31Z</time>
      </trkpt>
      <trkpt lat="43.336" lon="6.53549">
        <ele>114</ele>
        <time>2012-08-27T09:04:44Z</time>
      </trkpt>
      <trkpt lat="43.33599" lon="6.53482">
        <ele>112</ele>
        <time>2012-08-27T09:04:55Z</time>
      </trkpt>
      <trkpt lat="43.33563" lon="6.53439">
        <ele>107</ele>
        <time>2012-08-27T09:05:07Z</time>
      </trkpt>
      <trkpt lat="43.33543" lon="6.53383">
        <ele>103</ele>
        <time>2012-08-27T09:05:19Z</time>
      </trkpt>
      <trkpt lat="43.33514" lon="6.53345">
        <ele>97</ele>
        <time>2012-08-27T09:05:57Z</time>
      </trkpt>
      <trkpt lat="43.33501" lon="6.53286">
        <ele>96</ele>
        <time>2012-08-27T09:06:08Z</time>
      </trkpt>
      <trkpt lat="43.33495" lon="6.5322">
        <ele>98</ele>
        <time>2012-08-27T09:06:23Z</time>
      </trkpt>
      <trkpt lat="43.33474" lon="6.53158">
        <ele>101</ele>
        <time>2012-08-27T09:06:36Z</time>
      </trkpt>
      <trkpt lat="43.33452" lon="6.53102">
        <ele>109</ele>
        <time>2012-08-27T09:07:01Z</time>
      </trkpt>
      <trkpt lat="43.33429" lon="6.5305">
        <ele>114</ele>
        <time>2012-08-27T09:07:29Z</time>
      </trkpt>
      <trkpt lat="43.33401" lon="6.52999">
        <ele>118</ele>
        <time>2012-08-27T09:07:59Z</time>
      </trkpt>
      <trkpt lat="43.33368" lon="6.52951">
        <ele>120</ele>
        <time>2012-08-27T09:08:28Z</time>
      </trkpt>
      <trkpt lat="43.3334" lon="6.52899">
        <ele>121</ele>
        <time>2012-08-27T09:08:44Z</time>
      </trkpt>
      <trkpt lat="43.33306" lon="6.52853">
        <ele>117</ele>
        <time>2012-08-27T09:08:54Z</time>
      </trkpt>
      <trkpt lat="43.33312" lon="6.52871">
        <ele>117</ele>
        <time>2012-08-27T09:09:15Z</time>
      </trkpt>
      <trkpt lat="43.33345" lon="6.52912">
        <ele>121</ele>
        <time>2012-08-27T09:09:31Z</time>
      </trkpt>
      <trkpt lat="43.33335" lon="6.52918">
        <ele>120</ele>
        <time>2012-08-27T09:10:00Z</time>
      </trkpt>
      <trkpt lat="43.33296" lon="6.52892">
        <ele>114</ele>
        <time>2012-08-27T09:10:25Z</time>
      </trkpt>
      <trkpt lat="43.33251" lon="6.52872">
        <ele>104</ele>
        <time>2012-08-27T09:10:41Z</time>
      </trkpt>
      <trkpt lat="43.33207" lon="6.52886">
        <ele>100</ele>
        <time>2012-08-27T09:12:03Z</time>
      </trkpt>
      <trkpt lat="43.33162" lon="6.52892">
        <ele>98</ele>
        <time>2012-08-27T09:12:17Z</time>
      </trkpt>
      <trkpt lat="43.33133" lon="6.52886">
        <ele>94</ele>
        <time>2012-08-27T09:12:48Z</time>
      </trkpt>
      <trkpt lat="43.3318" lon="6.529">
        <ele>100</ele>
        <time>2012-08-27T09:13:20Z</time>
      </trkpt>
      <trkpt lat="43.33224" lon="6.52882">
        <ele>101</ele>
        <time>2012-08-27T09:13:48Z</time>
      </trkpt>
      <trkpt lat="43.33271" lon="6.52889">
        <ele>109</ele>
        <time>2012-08-27T09:14:12Z</time>
      </trkpt>
      <trkpt lat="43.33316" lon="6.52905">
        <ele>118</ele>
        <time>2012-08-27T09:14:45Z</time>
      </trkpt>
      <trkpt lat="43.3335" lon="6.52938">
        <ele>120</ele>
        <time>2012-08-27T09:15:53Z</time>
      </trkpt>
      <trkpt lat="43.3338" lon="6.52976">
        <ele>120</ele>
        <time>2012-08-27T09:16:20Z</time>
      </trkpt>
      <trkpt lat="43.33413" lon="6.53023">
        <ele>116</ele>
        <time>2012-08-27T09:16:31Z</time>
      </trkpt>
      <trkpt lat="43.33438" lon="6.53077">
        <ele>112</ele>
        <time>2012-08-27T09:16:41Z</time>
      </trkpt>
      <trkpt lat="43.33464" lon="6.53142">
        <ele>103</ele>
        <time>2012-08-27T09:16:49Z</time>
      </trkpt>
      <trkpt lat="43.33487" lon="6.5319">
        <ele>100</ele>
        <time>2012-08-27T09:18:08Z</time>
      </trkpt>
      <trkpt lat="43.33461" lon="6.53134">
        <ele>105</ele>
        <time>2012-08-27T09:18:29Z</time>
      </trkpt>
      <trkpt lat="43.33439" lon="6.53076">
        <ele>112</ele>
        <time>2012-08-27T09:18:57Z</time>
      </trkpt>
      <trkpt lat="43.33429" lon="6.5305">
        <ele>114</ele>
        <time>2012-08-27T09:19:28Z</time>
      </trkpt>
      <trkpt lat="43.33451" lon="6.53108">
        <ele>109</ele>
        <time>2012-08-27T09:19:44Z</time>
      </trkpt>
      <trkpt lat="43.33475" lon="6.53165">
        <ele>101</ele>
        <time>2012-08-27T09:19:54Z</time>
      </trkpt>
      <trkpt lat="43.33491" lon="6.53225">
        <ele>98</ele>
        <time>2012-08-27T09:20:07Z</time>
      </trkpt>
      <trkpt lat="43.335" lon="6.53288">
        <ele>96</ele>
        <time>2012-08-27T09:20:36Z</time>
      </trkpt>
      <trkpt lat="43.33508" lon="6.53348">
        <ele>96</ele>
        <time>2012-08-27T09:20:51Z</time>
      </trkpt>
      <trkpt lat="43.3355" lon="6.53397">
        <ele>105</ele>
        <time>2012-08-27T09:21:10Z</time>
      </trkpt>
      <trkpt lat="43.33553" lon="6.53447">
        <ele>106</ele>
        <time>2012-08-27T09:21:27Z</time>
      </trkpt>
      <trkpt lat="43.33515" lon="6.53475">
        <ele>101</ele>
        <time>2012-08-27T09:21:38Z</time>
      </trkpt>
      <trkpt lat="43.33494" lon="6.5353">
        <ele>100</ele>
        <time>2012-08-27T09:21:49Z</time>
      </trkpt>
      <trkpt lat="43.33475" lon="6.53586">
        <ele>98</ele>
        <time>2012-08-27T09:21:58Z</time>
      </trkpt>
      <trkpt lat="43.33455" lon="6.5364">
        <ele>97</ele>
        <time>2012-08-27T09:22:10Z</time>
      </trkpt>
      <trkpt lat="43.33425" lon="6.5368">
        <ele>96</ele>
        <time>2012-08-27T09:22:19Z</time>
      </trkpt>
      <trkpt lat="43.3338" lon="6.53689">
        <ele>92</ele>
        <time>2012-08-27T09:22:27Z</time>
      </trkpt>
      <trkpt lat="43.33343" lon="6.53726">
        <ele>91</ele>
        <time>2012-08-27T09:22:37Z</time>
      </trkpt>
      <trkpt lat="43.33301" lon="6.53762">
        <ele>89</ele>
        <time>2012-08-27T09:22:46Z</time>
      </trkpt>
      <trkpt lat="43.33257" lon="6.53787">
        <ele>87</ele>
        <time>2012-08-27T09:22:56Z</time>
      </trkpt>
      <trkpt lat="43.33229" lon="6.53836">
        <ele>86</ele>
        <time>2012-08-27T09:23:06Z</time>
      </trkpt>
      <trkpt lat="43.33199" lon="6.53881">
        <ele>82</ele>
        <time>2012-08-27T09:23:15Z</time>
      </trkpt>
      <trkpt lat="43.33151" lon="6.53897">
        <ele>77</ele>
        <time>2012-08-27T09:23:24Z</time>
      </trkpt>
      <trkpt lat="43.33152" lon="6.53957">
        <ele>76</ele>
        <time>2012-08-27T09:23:32Z</time>
      </trkpt>
      <trkpt lat="43.33131" lon="6.5402">
        <ele>74</ele>
        <time>2012-08-27T09:23:40Z</time>
      </trkpt>
      <trkpt lat="43.33132" lon="6.54083">
        <ele>73</ele>
        <time>2012-08-27T09:23:49Z</time>
      </trkpt>
      <trkpt lat="43.33151" lon="6.54138">
        <ele>74</ele>
        <time>2012-08-27T09:24:01Z</time>
      </trkpt>
      <trkpt lat="43.33167" lon="6.54199">
        <ele>74</ele>
        <time>2012-08-27T09:24:12Z</time>
      </trkpt>
      <trkpt lat="43.33174" lon="6.54252">
        <ele>72</ele>
        <time>2012-08-27T09:25:05Z</time>
      </trkpt>
      <trkpt lat="43.33173" lon="6.5432">
        <ele>69</ele>
        <time>2012-08-27T09:25:14Z</time>
      </trkpt>
      <trkpt lat="43.33178" lon="6.54386">
        <ele>67</ele>
        <time>2012-08-27T09:25:23Z</time>
      </trkpt>
      <trkpt lat="43.33152" lon="6.54404">
        <ele>65</ele>
        <time>2012-08-27T09:25:41Z</time>
      </trkpt>
      <trkpt lat="43.33178" lon="6.54433">
        <ele>66</ele>
        <time>2012-08-27T09:26:06Z</time>
      </trkpt>
      <trkpt lat="43.33142" lon="6.54477">
        <ele>62</ele>
        <time>2012-08-27T09:26:19Z</time>
      </trkpt>
      <trkpt lat="43.33131" lon="6.54492">
        <ele>61</ele>
        <time>2012-08-27T09:26:36Z</time>
      </trkpt>
      <trkpt lat="43.33164" lon="6.54449">
        <ele>65</ele>
        <time>2012-08-27T09:26:51Z</time>
      </trkpt>
      <trkpt lat="43.33159" lon="6.54413">
        <ele>65</ele>
        <time>2012-08-27T09:27:20Z</time>
      </trkpt>
      <trkpt lat="43.33119" lon="6.54381">
        <ele>63</ele>
        <time>2012-08-27T09:27:28Z</time>
      </trkpt>
      <trkpt lat="43.33072" lon="6.5438">
        <ele>60</ele>
        <time>2012-08-27T09:27:35Z</time>
      </trkpt>
      <trkpt lat="43.33029" lon="6.54406">
        <ele>55</ele>
        <time>2012-08-27T09:27:41Z</time>
      </trkpt>
      <trkpt lat="43.32986" lon="6.54431">
        <ele>52</ele>
        <time>2012-08-27T09:27:47Z</time>
      </trkpt>
      <trkpt lat="43.32944" lon="6.54458">
        <ele>53</ele>
        <time>2012-08-27T09:27:53Z</time>
      </trkpt>
      <trkpt lat="43.32923" lon="6.54513">
        <ele>56</ele>
        <time>2012-08-27T09:28:01Z</time>
      </trkpt>
      <trkpt lat="43.32932" lon="6.5457">
        <ele>57</ele>
        <time>2012-08-27T09:28:13Z</time>
      </trkpt>
      <trkpt lat="43.32938" lon="6.54632">
        <ele>56</ele>
        <time>2012-08-27T09:28:26Z</time>
      </trkpt>
      <trkpt lat="43.32903" lon="6.5468">
        <ele>58</ele>
        <time>2012-08-27T09:28:38Z</time>
      </trkpt>
      <trkpt lat="43.32869" lon="6.54722">
        <ele>58</ele>
        <time>2012-08-27T09:28:50Z</time>
      </trkpt>
      <trkpt lat="43.32832" lon="6.54754">
        <ele>59</ele>
        <time>2012-08-27T09:30:12Z</time>
      </trkpt>
      <trkpt lat="43.32792" lon="6.5479">
        <ele>63</ele>
        <time>2012-08-27T09:30:30Z</time>
      </trkpt>
      <trkpt lat="43.32759" lon="6.54833">
        <ele>66</ele>
        <time>2012-08-27T09:30:47Z</time>
      </trkpt>
      <trkpt lat="43.32728" lon="6.54876">
        <ele>68</ele>
        <time>2012-08-27T09:31:05Z</time>
      </trkpt>
      <trkpt lat="43.32698" lon="6.54922">
        <ele>71</ele>
        <time>2012-08-27T09:31:24Z</time>
      </trkpt>
      <trkpt lat="43.32662" lon="6.54965">
        <ele>76</ele>
        <time>2012-08-27T09:31:44Z</time>
      </trkpt>
      <trkpt lat="43.32622" lon="6.54995">
        <ele>79</ele>
        <time>2012-08-27T09:32:03Z</time>
      </trkpt>
      <trkpt lat="43.32582" lon="6.55019">
        <ele>81</ele>
        <time>2012-08-27T09:32:23Z</time>
      </trkpt>
      <trkpt lat="43.32532" lon="6.55009">
        <ele>83</ele>
        <time>2012-08-27T09:32:45Z</time>
      </trkpt>
      <trkpt lat="43.32488" lon="6.55001">
        <ele>83</ele>
        <time>2012-08-27T09:34:38Z</time>
      </trkpt>
      <trkpt lat="43.32441" lon="6.5499">
        <ele>80</ele>
        <time>2012-08-27T09:34:54Z</time>
      </trkpt>
      <trkpt lat="43.32393" lon="6.54955">
        <ele>78</ele>
        <time>2012-08-27T09:35:04Z</time>
      </trkpt>
      <trkpt lat="43.32359" lon="6.54916">
        <ele>77</ele>
        <time>2012-08-27T09:35:11Z</time>
      </trkpt>
      <trkpt lat="43.32324" lon="6.54872">
        <ele>76</ele>
        <time>2012-08-27T09:35:19Z</time>
      </trkpt>
      <trkpt lat="43.32294" lon="6.54822">
        <ele>76</ele>
        <time>2012-08-27T09:35:29Z</time>
      </trkpt>
      <trkpt lat="43.32264" lon="6.54774">
        <ele>76</ele>
        <time>2012-08-27T09:35:48Z</time>
      </trkpt>
      <trkpt lat="43.32215" lon="6.54759">
        <ele>78</ele>
        <time>2012-08-27T09:36:08Z</time>
      </trkpt>
      <trkpt lat="43.32167" lon="6.54759">
        <ele>82</ele>
        <time>2012-08-27T09:36:31Z</time>
      </trkpt>
      <trkpt lat="43.32127" lon="6.54766">
        <ele>86</ele>
        <time>2012-08-27T09:37:02Z</time>
      </trkpt>
      <trkpt lat="43.32079" lon="6.54773">
        <ele>92</ele>
        <time>2012-08-27T09:37:55Z</time>
      </trkpt>
      <trkpt lat="43.32035" lon="6.54792">
        <ele>97</ele>
        <time>2012-08-27T09:38:29Z</time>
      </trkpt>
      <trkpt lat="43.31991" lon="6.5481">
        <ele>101</ele>
        <time>2012-08-27T09:39:02Z</time>
      </trkpt>
      <trkpt lat="43.31947" lon="6.54825">
        <ele>106</ele>
        <time>2012-08-27T09:39:36Z</time>
      </trkpt>
      <trkpt lat="43.31902" lon="6.54832">
        <ele>111</ele>
        <time>2012-08-27T09:40:09Z</time>
      </trkpt>
      <trkpt lat="43.31858" lon="6.54835">
        <ele>115</ele>
        <time>2012-08-27T09:40:41Z</time>
      </trkpt>
      <trkpt lat="43.31815" lon="6.54853">
        <ele>122</ele>
        <time>2012-08-27T09:41:41Z</time>
      </trkpt>
      <trkpt lat="43.31804" lon="6.54861">
        <ele>124</ele>
        <time>2012-08-27T09:46:26Z</time>
      </trkpt>
      <trkpt lat="43.31758" lon="6.54873">
        <ele>130</ele>
        <time>2012-08-27T09:47:06Z</time>
      </trkpt>
      <trkpt lat="43.31715" lon="6.54885">
        <ele>135</ele>
        <time>2012-08-27T09:47:58Z</time>
      </trkpt>
      <trkpt lat="43.31671" lon="6.54896">
        <ele>141</ele>
        <time>2012-08-27T09:48:43Z</time>
      </trkpt>
      <trkpt lat="43.31632" lon="6.54897">
        <ele>147</ele>
        <time>2012-08-27T09:49:56Z</time>
      </trkpt>
      <trkpt lat="43.31586" lon="6.54889">
        <ele>152</ele>
        <time>2012-08-27T09:56:55Z</time>
      </trkpt>
      <trkpt lat="43.31541" lon="6.54891">
        <ele>156</ele>
        <time>2012-08-27T09:57:21Z</time>
      </trkpt>
      <trkpt lat="43.31491" lon="6.54889">
        <ele>159</ele>
        <time>2012-08-27T09:57:41Z</time>
      </trkpt>
      <trkpt lat="43.31444" lon="6.54883">
        <ele>160</ele>
        <time>2012-08-27T09:58:04Z</time>
      </trkpt>
      <trkpt lat="43.31399" lon="6.54893">
        <ele>163</ele>
        <time>2012-08-27T09:58:31Z</time>
      </trkpt>
      <trkpt lat="43.31353" lon="6.54909">
        <ele>166</ele>
        <time>2012-08-27T09:58:55Z</time>
      </trkpt>
      <trkpt lat="43.31323" lon="6.54879">
        <ele>169</ele>
        <time>2012-08-27T09:59:22Z</time>
      </trkpt>
      <trkpt lat="43.31292" lon="6.54883">
        <ele>172</ele>
        <time>2012-08-27T09:59:55Z</time>
      </trkpt>
      <trkpt lat="43.31253" lon="6.54916">
        <ele>176</ele>
        <time>2012-08-27T10:00:22Z</time>
      </trkpt>
      <trkpt lat="43.31215" lon="6.54948">
        <ele>179</ele>
        <time>2012-08-27T10:00:50Z</time>
      </trkpt>
      <trkpt lat="43.31174" lon="6.54978">
        <ele>184</ele>
        <time>2012-08-27T10:01:17Z</time>
      </trkpt>
      <trkpt lat="43.31134" lon="6.55008">
        <ele>185</ele>
        <time>2012-08-27T10:01:39Z</time>
      </trkpt>
      <trkpt lat="43.31092" lon="6.55036">
        <ele>185</ele>
        <time>2012-08-27T10:02:02Z</time>
      </trkpt>
      <trkpt lat="43.31068" lon="6.55069">
        <ele>183</ele>
        <time>2012-08-27T10:03:26Z</time>
      </trkpt>
      <trkpt lat="43.31034" lon="6.55112">
        <ele>181</ele>
        <time>2012-08-27T10:03:41Z</time>
      </trkpt>
      <trkpt lat="43.31011" lon="6.5517">
        <ele>179</ele>
        <time>2012-08-27T10:03:56Z</time>
      </trkpt>
      <trkpt lat="43.30991" lon="6.55229">
        <ele>178</ele>
        <time>2012-08-27T10:04:08Z</time>
      </trkpt>
      <trkpt lat="43.30974" lon="6.55288">
        <ele>177</ele>
        <time>2012-08-27T10:04:20Z</time>
      </trkpt>
      <trkpt lat="43.30965" lon="6.55347">
        <ele>180</ele>
        <time>2012-08-27T10:04:37Z</time>
      </trkpt>
      <trkpt lat="43.3094" lon="6.55404">
        <ele>183</ele>
        <time>2012-08-27T10:04:57Z</time>
      </trkpt>
      <trkpt lat="43.30905" lon="6.55446">
        <ele>185</ele>
        <time>2012-08-27T10:05:18Z</time>
      </trkpt>
      <trkpt lat="43.30857" lon="6.55472">
        <ele>182</ele>
        <time>2012-08-27T10:05:35Z</time>
      </trkpt>
      <trkpt lat="43.30814" lon="6.55521">
        <ele>183</ele>
        <time>2012-08-27T10:05:45Z</time>
      </trkpt>
      <trkpt lat="43.30771" lon="6.55543">
        <ele>177</ele>
        <time>2012-08-27T10:05:57Z</time>
      </trkpt>
      <trkpt lat="43.30732" lon="6.55582">
        <ele>176</ele>
        <time>2012-08-27T10:06:07Z</time>
      </trkpt>
      <trkpt lat="43.30701" lon="6.55634">
        <ele>178</ele>
        <time>2012-08-27T10:06:20Z</time>
      </trkpt>
      <trkpt lat="43.30674" lon="6.55682">
        <ele>180</ele>
        <time>2012-08-27T10:06:32Z</time>
      </trkpt>
      <trkpt lat="43.30635" lon="6.55716">
        <ele>175</ele>
        <time>2012-08-27T10:06:44Z</time>
      </trkpt>
      <trkpt lat="43.30602" lon="6.5576">
        <ele>172</ele>
        <time>2012-08-27T10:06:57Z</time>
      </trkpt>
      <trkpt lat="43.30592" lon="6.5582">
        <ele>175</ele>
        <time>2012-08-27T10:07:17Z</time>
      </trkpt>
      <trkpt lat="43.30557" lon="6.55859">
        <ele>181</ele>
        <time>2012-08-27T10:07:43Z</time>
      </trkpt>
      <trkpt lat="43.30508" lon="6.55881">
        <ele>184</ele>
        <time>2012-08-27T10:08:17Z</time>
      </trkpt>
      <trkpt lat="43.30464" lon="6.55896">
        <ele>186</ele>
        <time>2012-08-27T10:08:46Z</time>
      </trkpt>
      <trkpt lat="43.30421" lon="6.5592">
        <ele>189</ele>
        <time>2012-08-27T10:09:17Z</time>
      </trkpt>
      <trkpt lat="43.3039" lon="6.55963">
        <ele>196</ele>
        <time>2012-08-27T10:09:46Z</time>
      </trkpt>
      <trkpt lat="43.30364" lon="6.56015">
        <ele>202</ele>
        <time>2012-08-27T10:10:11Z</time>
      </trkpt>
      <trkpt lat="43.3035" lon="6.5607">
        <ele>207</ele>
        <time>2012-08-27T10:10:34Z</time>
      </trkpt>
      <trkpt lat="43.30328" lon="6.56125">
        <ele>207</ele>
        <time>2012-08-27T10:10:58Z</time>
      </trkpt>
      <trkpt lat="43.30309" lon="6.56184">
        <ele>208</ele>
        <time>2012-08-27T10:11:18Z</time>
      </trkpt>
      <trkpt lat="43.30292" lon="6.5624">
        <ele>208</ele>
        <time>2012-08-27T10:11:32Z</time>
      </trkpt>
      <trkpt lat="43.30277" lon="6.56303">
        <ele>208</ele>
        <time>2012-08-27T10:11:49Z</time>
      </trkpt>
      <trkpt lat="43.30264" lon="6.56362">
        <ele>208</ele>
        <time>2012-08-27T10:12:21Z</time>
      </trkpt>
      <trkpt lat="43.30247" lon="6.5642">
        <ele>204</ele>
        <time>2012-08-27T10:12:50Z</time>
      </trkpt>
      <trkpt lat="43.30264" lon="6.56447">
        <ele>199</ele>
        <time>2012-08-27T10:18:59Z</time>
      </trkpt>
      <trkpt lat="43.30312" lon="6.56425">
        <ele>202</ele>
        <time>2012-08-27T10:19:08Z</time>
      </trkpt>
      <trkpt lat="43.3035" lon="6.56393">
        <ele>208</ele>
        <time>2012-08-27T10:19:23Z</time>
      </trkpt>
      <trkpt lat="43.3039" lon="6.564">
        <ele>210</ele>
        <time>2012-08-27T10:19:48Z</time>
      </trkpt>
      <trkpt lat="43.30433" lon="6.5641">
        <ele>213</ele>
        <time>2012-08-27T10:20:23Z</time>
      </trkpt>
      <trkpt lat="43.30479" lon="6.56416">
        <ele>219</ele>
        <time>2012-08-27T10:20:55Z</time>
      </trkpt>
      <trkpt lat="43.30529" lon="6.56409">
        <ele>226</ele>
        <time>2012-08-27T10:21:14Z</time>
      </trkpt>
      <trkpt lat="43.30574" lon="6.56415">
        <ele>229</ele>
        <time>2012-08-27T10:21:34Z</time>
      </trkpt>
      <trkpt lat="43.30611" lon="6.56458">
        <ele>221</ele>
        <time>2012-08-27T10:22:01Z</time>
      </trkpt>
      <trkpt lat="43.30655" lon="6.56448">
        <ele>227</ele>
        <time>2012-08-27T10:22:18Z</time>
      </trkpt>
      <trkpt lat="43.307" lon="6.5644">
        <ele>232</ele>
        <time>2012-08-27T10:22:40Z</time>
      </trkpt>
      <trkpt lat="43.30745" lon="6.56447">
        <ele>230</ele>
        <time>2012-08-27T10:22:59Z</time>
      </trkpt>
      <trkpt lat="43.30791" lon="6.56435">
        <ele>236</ele>
        <time>2012-08-27T10:23:16Z</time>
      </trkpt>
      <trkpt lat="43.30835" lon="6.56438">
        <ele>237</ele>
        <time>2012-08-27T10:23:38Z</time>
      </trkpt>
      <trkpt lat="43.30877" lon="6.56433">
        <ele>244</ele>
        <time>2012-08-27T10:23:57Z</time>
      </trkpt>
      <trkpt lat="43.30899" lon="6.5649">
        <ele>238</ele>
        <time>2012-08-27T10:24:21Z</time>
      </trkpt>
      <trkpt lat="43.30936" lon="6.56521">
        <ele>242</ele>
        <time>2012-08-27T10:33:22Z</time>
      </trkpt>
      <trkpt lat="43.30975" lon="6.56556">
        <ele>242</ele>
        <time>2012-08-27T10:33:39Z</time>
      </trkpt>
      <trkpt lat="43.31019" lon="6.56591">
        <ele>245</ele>
        <time>2012-08-27T10:33:53Z</time>
      </trkpt>
      <trkpt lat="43.31049" lon="6.56639">
        <ele>240</ele>
        <time>2012-08-27T10:34:06Z</time>
      </trkpt>
      <trkpt lat="43.31085" lon="6.56682">
        <ele>238</ele>
        <time>2012-08-27T10:34:16Z</time>
      </trkpt>
      <trkpt lat="43.31122" lon="6.5673">
        <ele>238</ele>
        <time>2012-08-27T10:34:25Z</time>
      </trkpt>
      <trkpt lat="43.31095" lon="6.56775">
        <ele>238</ele>
        <time>2012-08-27T10:34:44Z</time>
      </trkpt>
      <trkpt lat="43.31076" lon="6.56827">
        <ele>244</ele>
        <time>2012-08-27T10:35:19Z</time>
      </trkpt>
      <trkpt lat="43.31058" lon="6.56883">
        <ele>249</ele>
        <time>2012-08-27T10:36:07Z</time>
      </trkpt>
      <trkpt lat="43.31029" lon="6.56934">
        <ele>253</ele>
        <time>2012-08-27T10:36:39Z</time>
      </trkpt>
      <trkpt lat="43.30993" lon="6.56972">
        <ele>258</ele>
        <time>2012-08-27T10:37:12Z</time>
      </trkpt>
      <trkpt lat="43.30952" lon="6.57001">
        <ele>260</ele>
        <time>2012-08-27T10:37:44Z</time>
      </trkpt>
      <trkpt lat="43.30925" lon="6.57049">
        <ele>263</ele>
        <time>2012-08-27T10:38:06Z</time>
      </trkpt>
      <trkpt lat="43.30908" lon="6.57098">
        <ele>264</ele>
        <time>2012-08-27T10:39:01Z</time>
      </trkpt>
      <trkpt lat="43.30912" lon="6.57098">
        <ele>265</ele>
        <time>2012-08-27T10:44:46Z</time>
      </trkpt>
      <trkpt lat="43.3092" lon="6.57156">
        <ele>265</ele>
        <time>2012-08-27T10:45:05Z</time>
      </trkpt>
      <trkpt lat="43.30911" lon="6.57222">
        <ele>261</ele>
        <time>2012-08-27T10:45:19Z</time>
      </trkpt>
      <trkpt lat="43.30894" lon="6.57284">
        <ele>255</ele>
        <time>2012-08-27T10:45:33Z</time>
      </trkpt>
      <trkpt lat="43.30903" lon="6.57344">
        <ele>253</ele>
        <time>2012-08-27T10:45:48Z</time>
      </trkpt>
      <trkpt lat="43.30917" lon="6.57398">
        <ele>249</ele>
        <time>2012-08-27T10:46:01Z</time>
      </trkpt>
      <trkpt lat="43.30951" lon="6.57441">
        <ele>250</ele>
        <time>2012-08-27T10:46:13Z</time>
      </trkpt>
      <trkpt lat="43.3095" lon="6.57505">
        <ele>240</ele>
        <time>2012-08-27T10:46:25Z</time>
      </trkpt>
      <trkpt lat="43.30964" lon="6.57563">
        <ele>235</ele>
        <time>2012-08-27T10:46:36Z</time>
      </trkpt>
      <trkpt lat="43.30997" lon="6.57601">
        <ele>237</ele>
        <time>2012-08-27T10:46:52Z</time>
      </trkpt>
      <trkpt lat="43.3099" lon="6.57664">
        <ele>229</ele>
        <time>2012-08-27T10:47:06Z</time>
      </trkpt>
      <trkpt lat="43.3098" lon="6.57724">
        <ele>226</ele>
        <time>2012-08-27T10:47:15Z</time>
      </trkpt>
      <trkpt lat="43.30972" lon="6.57795">
        <ele>224</ele>
        <time>2012-08-27T10:47:50Z</time>
      </trkpt>
      <trkpt lat="43.30946" lon="6.57853">
        <ele>224</ele>
        <time>2012-08-27T10:48:00Z</time>
      </trkpt>
      <trkpt lat="43.30901" lon="6.57872">
        <ele>221</ele>
        <time>2012-08-27T10:48:16Z</time>
      </trkpt>
      <trkpt lat="43.30855" lon="6.57867">
        <ele>216</ele>
        <time>2012-08-27T10:48:27Z</time>
      </trkpt>
      <trkpt lat="43.30806" lon="6.5788">
        <ele>208</ele>
        <time>2012-08-27T10:48:34Z</time>
      </trkpt>
      <trkpt lat="43.30763" lon="6.57869">
        <ele>202</ele>
        <time>2012-08-27T10:48:43Z</time>
      </trkpt>
      <trkpt lat="43.30738" lon="6.57823">
        <ele>197</ele>
        <time>2012-08-27T10:49:27Z</time>
      </trkpt>
      <trkpt lat="43.30753" lon="6.57761">
        <ele>195</ele>
        <time>2012-08-27T10:49:39Z</time>
      </trkpt>
      <trkpt lat="43.30737" lon="6.57698">
        <ele>190</ele>
        <time>2012-08-27T10:49:47Z</time>
      </trkpt>
      <trkpt lat="43.30741" lon="6.57633">
        <ele>186</ele>
        <time>2012-08-27T10:49:56Z</time>
      </trkpt>
      <trkpt lat="43.30754" lon="6.57573">
        <ele>182</ele>
        <time>2012-08-27T10:50:04Z</time>
      </trkpt>
      <trkpt lat="43.30717" lon="6.57562">
        <ele>176</ele>
        <time>2012-08-27T10:50:14Z</time>
      </trkpt>
      <trkpt lat="43.30671" lon="6.57568">
        <ele>171</ele>
        <time>2012-08-27T10:50:21Z</time>
      </trkpt>
      <trkpt lat="43.30623" lon="6.57561">
        <ele>167</ele>
        <time>2012-08-27T10:50:27Z</time>
      </trkpt>
      <trkpt lat="43.30577" lon="6.57546">
        <ele>168</ele>
        <time>2012-08-27T10:50:36Z</time>
      </trkpt>
      <trkpt lat="43.30564" lon="6.57483">
        <ele>158</ele>
        <time>2012-08-27T10:50:45Z</time>
      </trkpt>
      <trkpt lat="43.30536" lon="6.5743">
        <ele>154</ele>
        <time>2012-08-27T10:50:53Z</time>
      </trkpt>
      <trkpt lat="43.30493" lon="6.57394">
        <ele>154</ele>
        <time>2012-08-27T10:51:01Z</time>
      </trkpt>
      <trkpt lat="43.30468" lon="6.57339">
        <ele>146</ele>
        <time>2012-08-27T10:51:07Z</time>
      </trkpt>
      <trkpt lat="43.30437" lon="6.57289">
        <ele>136</ele>
        <time>2012-08-27T10:51:14Z</time>
      </trkpt>
      <trkpt lat="43.3039" lon="6.57277">
        <ele>133</ele>
        <time>2012-08-27T10:51:22Z</time>
      </trkpt>
      <trkpt lat="43.30341" lon="6.57269">
        <ele>128</ele>
        <time>2012-08-27T10:51:33Z</time>
      </trkpt>
      <trkpt lat="43.30308" lon="6.57227">
        <ele>115</ele>
        <time>2012-08-27T10:51:45Z</time>
      </trkpt>
      <trkpt lat="43.30263" lon="6.57212">
        <ele>111</ele>
        <time>2012-08-27T10:51:54Z</time>
      </trkpt>
      <trkpt lat="43.30216" lon="6.57215">
        <ele>106</ele>
        <time>2012-08-27T10:52:03Z</time>
      </trkpt>
      <trkpt lat="43.30178" lon="6.57201">
        <ele>98</ele>
        <time>2012-08-27T10:52:29Z</time>
      </trkpt>
      <trkpt lat="43.30131" lon="6.57182">
        <ele>89</ele>
        <time>2012-08-27T10:52:43Z</time>
      </trkpt>
      <trkpt lat="43.30086" lon="6.5717">
        <ele>81</ele>
        <time>2012-08-27T10:52:50Z</time>
      </trkpt>
      <trkpt lat="43.3004" lon="6.57183">
        <ele>80</ele>
        <time>2012-08-27T10:52:57Z</time>
      </trkpt>
      <trkpt lat="43.29998" lon="6.57214">
        <ele>77</ele>
        <time>2012-08-27T10:53:03Z</time>
      </trkpt>
      <trkpt lat="43.29958" lon="6.5725">
        <ele>77</ele>
        <time>2012-08-27T10:53:10Z</time>
      </trkpt>
      <trkpt lat="43.29921" lon="6.57291">
        <ele>77</ele>
        <time>2012-08-27T10:53:17Z</time>
      </trkpt>
      <trkpt lat="43.29885" lon="6.57329">
        <ele>74</ele>
        <time>2012-08-27T10:53:27Z</time>
      </trkpt>
      <trkpt lat="43.29851" lon="6.57367">
        <ele>74</ele>
        <time>2012-08-27T10:53:56Z</time>
      </trkpt>
      <trkpt lat="43.2983" lon="6.57384">
        <ele>74</ele>
        <time>2012-08-27T10:55:28Z</time>
      </trkpt>
      <trkpt lat="43.29787" lon="6.57417">
        <ele>75</ele>
        <time>2012-08-27T10:55:38Z</time>
      </trkpt>
      <trkpt lat="43.29743" lon="6.57436">
        <ele>74</ele>
        <time>2012-08-27T10:55:51Z</time>
      </trkpt>
      <trkpt lat="43.29693" lon="6.57441">
        <ele>69</ele>
        <time>2012-08-27T10:56:01Z</time>
      </trkpt>
      <trkpt lat="43.29644" lon="6.57453">
        <ele>63</ele>
        <time>2012-08-27T10:56:09Z</time>
      </trkpt>
      <trkpt lat="43.296" lon="6.57449">
        <ele>56</ele>
        <time>2012-08-27T10:56:17Z</time>
      </trkpt>
      <trkpt lat="43.2955" lon="6.5745">
        <ele>52</ele>
        <time>2012-08-27T10:56:26Z</time>
      </trkpt>
      <trkpt lat="43.29507" lon="6.5748">
        <ele>53</ele>
        <time>2012-08-27T10:56:39Z</time>
      </trkpt>
      <trkpt lat="43.29467" lon="6.57514">
        <ele>51</ele>
        <time>2012-08-27T10:56:48Z</time>
      </trkpt>
      <trkpt lat="43.2942" lon="6.57513">
        <ele>47</ele>
        <time>2012-08-27T10:56:56Z</time>
      </trkpt>
      <trkpt lat="43.29373" lon="6.57504">
        <ele>43</ele>
        <time>2012-08-27T10:57:04Z</time>
      </trkpt>
      <trkpt lat="43.29323" lon="6.575">
        <ele>41</ele>
        <time>2012-08-27T10:57:12Z</time>
      </trkpt>
      <trkpt lat="43.29281" lon="6.57473">
        <ele>40</ele>
        <time>2012-08-27T10:57:19Z</time>
      </trkpt>
      <trkpt lat="43.29231" lon="6.57453">
        <ele>38</ele>
        <time>2012-08-27T10:57:26Z</time>
      </trkpt>
      <trkpt lat="43.29184" lon="6.57451">
        <ele>38</ele>
        <time>2012-08-27T10:57:33Z</time>
      </trkpt>
      <trkpt lat="43.29142" lon="6.57418">
        <ele>37</ele>
        <time>2012-08-27T10:57:43Z</time>
      </trkpt>
      <trkpt lat="43.29097" lon="6.57399">
        <ele>34</ele>
        <time>2012-08-27T10:57:52Z</time>
      </trkpt>
      <trkpt lat="43.2905" lon="6.57387">
        <ele>31</ele>
        <time>2012-08-27T10:57:59Z</time>
      </trkpt>
      <trkpt lat="43.29005" lon="6.57415">
        <ele>32</ele>
        <time>2012-08-27T10:58:05Z</time>
      </trkpt>
      <trkpt lat="43.28956" lon="6.57423">
        <ele>30</ele>
        <time>2012-08-27T10:58:12Z</time>
      </trkpt>
      <trkpt lat="43.28907" lon="6.57442">
        <ele>26</ele>
        <time>2012-08-27T10:58:19Z</time>
      </trkpt>
      <trkpt lat="43.28863" lon="6.57472">
        <ele>27</ele>
        <time>2012-08-27T10:58:27Z</time>
      </trkpt>
      <trkpt lat="43.28816" lon="6.57469">
        <ele>24</ele>
        <time>2012-08-27T10:58:36Z</time>
      </trkpt>
      <trkpt lat="43.28772" lon="6.5748">
        <ele>22</ele>
        <time>2012-08-27T10:58:45Z</time>
      </trkpt>
      <trkpt lat="43.28729" lon="6.5747">
        <ele>18</ele>
        <time>2012-08-27T10:58:57Z</time>
      </trkpt>
      <trkpt lat="43.28692" lon="6.57485">
        <ele>16</ele>
        <time>2012-08-27T11:00:07Z</time>
      </trkpt>
      <trkpt lat="43.28653" lon="6.57526">
        <ele>15</ele>
        <time>2012-08-27T11:00:19Z</time>
      </trkpt>
      <trkpt lat="43.28615" lon="6.57569">
        <ele>13</ele>
        <time>2012-08-27T11:00:27Z</time>
      </trkpt>
      <trkpt lat="43.28571" lon="6.57607">
        <ele>12</ele>
        <time>2012-08-27T11:00:34Z</time>
      </trkpt>
      <trkpt lat="43.28519" lon="6.57626">
        <ele>12</ele>
        <time>2012-08-27T11:00:41Z</time>
      </trkpt>
      <trkpt lat="43.28469" lon="6.57631">
        <ele>11</ele>
        <time>2012-08-27T11:00:47Z</time>
      </trkpt>
      <trkpt lat="43.28421" lon="6.57625">
        <ele>11</ele>
        <time>2012-08-27T11:00:54Z</time>
      </trkpt>
      <trkpt lat="43.28375" lon="6.57622">
        <ele>12</ele>
        <time>2012-08-27T11:01:02Z</time>
      </trkpt>
      <trkpt lat="43.2833" lon="6.57634">
        <ele>11</ele>
        <time>2012-08-27T11:01:11Z</time>
      </trkpt>
      <trkpt lat="43.28289" lon="6.57662">
        <ele>11</ele>
        <time>2012-08-27T11:01:21Z</time>
      </trkpt>
      <trkpt lat="43.28258" lon="6.5771">
        <ele>11</ele>
        <time>2012-08-27T11:01:31Z</time>
      </trkpt>
      <trkpt lat="43.28223" lon="6.57749">
        <ele>10</ele>
        <time>2012-08-27T11:01:42Z</time>
      </trkpt>
      <trkpt lat="43.28172" lon="6.57753">
        <ele>11</ele>
        <time>2012-08-27T11:01:53Z</time>
      </trkpt>
      <trkpt lat="43.28135" lon="6.57791">
        <ele>9</ele>
        <time>2012-08-27T11:02:03Z</time>
      </trkpt>
      <trkpt lat="43.281" lon="6.5783">
        <ele>8</ele>
        <time>2012-08-27T11:02:12Z</time>
      </trkpt>
      <trkpt lat="43.28063" lon="6.57871">
        <ele>7</ele>
        <time>2012-08-27T11:02:21Z</time>
      </trkpt>
      <trkpt lat="43.28041" lon="6.57906">
        <ele>7</ele>
        <time>2012-08-27T11:02:48Z</time>
      </trkpt>
      <trkpt lat="43.28048" lon="6.57959">
        <ele>7</ele>
        <time>2012-08-27T11:03:24Z</time>
      </trkpt>
      <trkpt lat="43.28056" lon="6.58018">
        <ele>6</ele>
        <time>2012-08-27T11:03:44Z</time>
      </trkpt>
      <trkpt lat="43.28068" lon="6.58079">
        <ele>6</ele>
        <time>2012-08-27T11:03:59Z</time>
      </trkpt>
      <trkpt lat="43.28083" lon="6.5814">
        <ele>5</ele>
        <time>2012-08-27T11:04:10Z</time>
      </trkpt>
      <trkpt lat="43.281" lon="6.58203">
        <ele>5</ele>
        <time>2012-08-27T11:04:21Z</time>
      </trkpt>
      <trkpt lat="43.28117" lon="6.58264">
        <ele>5</ele>
        <time>2012-08-27T11:04:35Z</time>
      </trkpt>
      <trkpt lat="43.2813" lon="6.58323">
        <ele>5</ele>
        <time>2012-08-27T11:04:44Z</time>
      </trkpt>
      <trkpt lat="43.28145" lon="6.58385">
        <ele>5</ele>
        <time>2012-08-27T11:04:52Z</time>
      </trkpt>
      <trkpt lat="43.2816" lon="6.58443">
        <ele>6</ele>
        <time>2012-08-27T11:05:03Z</time>
      </trkpt>
      <trkpt lat="43.28174" lon="6.585">
        <ele>6</ele>
        <time>2012-08-27T11:05:13Z</time>
      </trkpt>
      <trkpt lat="43.28193" lon="6.5856">
        <ele>5</ele>
        <time>2012-08-27T11:05:21Z</time>
      </trkpt>
      <trkpt lat="43.282" lon="6.58616">
        <ele>6</ele>
        <time>2012-08-27T11:05:32Z</time>
      </trkpt>
      <trkpt lat="43.28185" lon="6.58667">
        <ele>4</ele>
        <time>2012-08-27T11:05:48Z</time>
      </trkpt>
      <trkpt lat="43.28163" lon="6.58718">
        <ele>2</ele>
        <time>2012-08-27T11:06:03Z</time>
      </trkpt>
    </trkseg>
  </trk>
</gpx>